sensor_id;sensor_type;location;lat;lon;timestamp;P1;durP1;ratioP1;P2;durP2;ratioP2
74963;SDS011;63521;51.900;4.748;2023-04-15T00:00:37;2.72;;;1.92;;
74963;SDS011;63521;51.900;4.748;2023-04-15T00:03:03;3.08;;;1.98;;
74963;SDS011;63521;51.900;4.748;2023-04-15T00:05:30;2.83;;;2.08;;
74963;SDS011;63521;51.900;4.748;2023-04-15T00:07:56;4.65;;;2.25;;
74963;SDS011;63521;51.900;4.748;2023-04-15T00:10:26;3.13;;;2.17;;
74963;SDS011;63521;51.900;4.748;2023-04-15T00:12:52;4.43;;;2.33;;
74963;SDS011;63521;51.900;4.748;2023-04-15T00:15:18;5.15;;;2.80;;
74963;SDS011;63521;51.900;4.748;2023-04-15T00:17:43;5.10;;;2.30;;
74963;SDS011;63521;51.900;4.748;2023-04-15T00:20:10;3.50;;;2.53;;
74963;SDS011;63521;51.900;4.748;2023-04-15T00:22:35;3.72;;;2.33;;
74963;SDS011;63521;51.900;4.748;2023-04-15T00:25:00;3.85;;;2.55;;
74963;SDS011;63521;51.900;4.748;2023-04-15T00:27:26;7.85;;;2.95;;
74963;SDS011;63521;51.900;4.748;2023-04-15T00:29:51;3.13;;;2.30;;
74963;SDS011;63521;51.900;4.748;2023-04-15T00:32:17;3.13;;;2.22;;
74963;SDS011;63521;51.900;4.748;2023-04-15T00:34:42;3.22;;;2.28;;
74963;SDS011;63521;51.900;4.748;2023-04-15T00:37:08;5.40;;;2.45;;
74963;SDS011;63521;51.900;4.748;2023-04-15T00:39:34;4.75;;;2.92;;
74963;SDS011;63521;51.900;4.748;2023-04-15T00:41:59;4.88;;;3.00;;
74963;SDS011;63521;51.900;4.748;2023-04-15T00:44:26;4.07;;;2.40;;
74963;SDS011;63521;51.900;4.748;2023-04-15T00:46:52;3.65;;;2.63;;
74963;SDS011;63521;51.900;4.748;2023-04-15T00:49:18;3.90;;;2.50;;
74963;SDS011;63521;51.900;4.748;2023-04-15T00:51:44;4.57;;;2.88;;
74963;SDS011;63521;51.900;4.748;2023-04-15T00:54:09;4.65;;;2.85;;
74963;SDS011;63521;51.900;4.748;2023-04-15T00:56:36;4.43;;;2.40;;
74963;SDS011;63521;51.900;4.748;2023-04-15T00:59:03;5.63;;;2.88;;
74963;SDS011;63521;51.900;4.748;2023-04-15T01:01:30;4.35;;;3.13;;
74963;SDS011;63521;51.900;4.748;2023-04-15T01:03:58;5.63;;;2.70;;
74963;SDS011;63521;51.900;4.748;2023-04-15T01:06:24;4.22;;;2.55;;
74963;SDS011;63521;51.900;4.748;2023-04-15T01:08:51;6.68;;;2.75;;
74963;SDS011;63521;51.900;4.748;2023-04-15T01:11:18;3.88;;;2.97;;
74963;SDS011;63521;51.900;4.748;2023-04-15T01:13:44;4.60;;;2.80;;
74963;SDS011;63521;51.900;4.748;2023-04-15T01:16:10;5.15;;;3.05;;
74963;SDS011;63521;51.900;4.748;2023-04-15T01:18:37;5.03;;;2.78;;
74963;SDS011;63521;51.900;4.748;2023-04-15T01:21:03;4.10;;;2.70;;
74963;SDS011;63521;51.900;4.748;2023-04-15T01:23:29;6.03;;;3.10;;
74963;SDS011;63521;51.900;4.748;2023-04-15T01:25:57;3.83;;;2.67;;
74963;SDS011;63521;51.900;4.748;2023-04-15T01:28:23;4.88;;;2.88;;
74963;SDS011;63521;51.900;4.748;2023-04-15T01:30:49;4.68;;;3.00;;
74963;SDS011;63521;51.900;4.748;2023-04-15T01:33:15;4.85;;;2.72;;
74963;SDS011;63521;51.900;4.748;2023-04-15T01:35:41;6.22;;;2.90;;
74963;SDS011;63521;51.900;4.748;2023-04-15T01:38:09;4.28;;;3.13;;
74963;SDS011;63521;51.900;4.748;2023-04-15T01:40:35;8.10;;;2.75;;
74963;SDS011;63521;51.900;4.748;2023-04-15T01:43:01;4.60;;;2.80;;
74963;SDS011;63521;51.900;4.748;2023-04-15T01:45:27;5.57;;;3.15;;
74963;SDS011;63521;51.900;4.748;2023-04-15T01:47:53;3.22;;;2.42;;
74963;SDS011;63521;51.900;4.748;2023-04-15T01:50:20;4.85;;;2.72;;
74963;SDS011;63521;51.900;4.748;2023-04-15T01:52:46;4.85;;;2.97;;
74963;SDS011;63521;51.900;4.748;2023-04-15T01:55:12;4.95;;;2.78;;
74963;SDS011;63521;51.900;4.748;2023-04-15T01:57:38;5.53;;;3.00;;
74963;SDS011;63521;51.900;4.748;2023-04-15T02:00:05;4.30;;;2.78;;
74963;SDS011;63521;51.900;4.748;2023-04-15T02:02:40;5.47;;;3.05;;
74963;SDS011;63521;51.900;4.748;2023-04-15T02:05:06;4.97;;;2.95;;
74963;SDS011;63521;51.900;4.748;2023-04-15T02:07:31;4.72;;;2.90;;
74963;SDS011;63521;51.900;4.748;2023-04-15T02:09:57;5.70;;;3.17;;
74963;SDS011;63521;51.900;4.748;2023-04-15T02:12:23;3.38;;;2.50;;
74963;SDS011;63521;51.900;4.748;2023-04-15T02:14:49;4.30;;;2.67;;
74963;SDS011;63521;51.900;4.748;2023-04-15T02:17:14;6.57;;;3.08;;
74963;SDS011;63521;51.900;4.748;2023-04-15T02:19:39;4.88;;;3.10;;
74963;SDS011;63521;51.900;4.748;2023-04-15T02:22:06;5.43;;;3.00;;
74963;SDS011;63521;51.900;4.748;2023-04-15T02:24:33;4.10;;;2.78;;
74963;SDS011;63521;51.900;4.748;2023-04-15T02:26:58;4.45;;;3.22;;
74963;SDS011;63521;51.900;4.748;2023-04-15T02:29:25;4.60;;;3.08;;
74963;SDS011;63521;51.900;4.748;2023-04-15T02:31:50;4.13;;;3.03;;
74963;SDS011;63521;51.900;4.748;2023-04-15T02:34:16;4.95;;;3.10;;
74963;SDS011;63521;51.900;4.748;2023-04-15T02:36:41;4.32;;;3.03;;
74963;SDS011;63521;51.900;4.748;2023-04-15T02:39:07;5.95;;;3.10;;
74963;SDS011;63521;51.900;4.748;2023-04-15T02:41:33;4.63;;;2.97;;
74963;SDS011;63521;51.900;4.748;2023-04-15T02:44:00;5.05;;;3.15;;
74963;SDS011;63521;51.900;4.748;2023-04-15T02:46:25;5.40;;;3.30;;
74963;SDS011;63521;51.900;4.748;2023-04-15T02:48:51;5.78;;;3.05;;
74963;SDS011;63521;51.900;4.748;2023-04-15T02:51:18;5.10;;;3.15;;
74963;SDS011;63521;51.900;4.748;2023-04-15T02:53:45;5.43;;;3.03;;
74963;SDS011;63521;51.900;4.748;2023-04-15T02:56:11;6.72;;;3.05;;
74963;SDS011;63521;51.900;4.748;2023-04-15T02:58:37;5.40;;;3.22;;
74963;SDS011;63521;51.900;4.748;2023-04-15T03:01:03;4.82;;;2.78;;
74963;SDS011;63521;51.900;4.748;2023-04-15T03:03:29;4.78;;;3.03;;
74963;SDS011;63521;51.900;4.748;2023-04-15T03:05:54;6.03;;;3.30;;
74963;SDS011;63521;51.900;4.748;2023-04-15T03:08:20;4.07;;;2.67;;
74963;SDS011;63521;51.900;4.748;2023-04-15T03:10:45;5.28;;;3.15;;
74963;SDS011;63521;51.900;4.748;2023-04-15T03:13:11;3.75;;;2.78;;
74963;SDS011;63521;51.900;4.748;2023-04-15T03:15:37;4.63;;;2.33;;
74963;SDS011;63521;51.900;4.748;2023-04-15T03:18:02;4.63;;;2.75;;
74963;SDS011;63521;51.900;4.748;2023-04-15T03:20:27;4.50;;;2.75;;
74963;SDS011;63521;51.900;4.748;2023-04-15T03:22:53;3.90;;;2.65;;
74963;SDS011;63521;51.900;4.748;2023-04-15T03:25:18;4.70;;;2.88;;
74963;SDS011;63521;51.900;4.748;2023-04-15T03:27:44;4.35;;;2.53;;
74963;SDS011;63521;51.900;4.748;2023-04-15T03:30:10;4.38;;;2.65;;
74963;SDS011;63521;51.900;4.748;2023-04-15T03:32:36;4.45;;;2.80;;
74963;SDS011;63521;51.900;4.748;2023-04-15T03:35:01;4.82;;;2.80;;
74963;SDS011;63521;51.900;4.748;2023-04-15T03:37:27;3.88;;;2.53;;
74963;SDS011;63521;51.900;4.748;2023-04-15T03:39:53;3.92;;;2.60;;
74963;SDS011;63521;51.900;4.748;2023-04-15T03:42:18;5.78;;;2.45;;
74963;SDS011;63521;51.900;4.748;2023-04-15T03:44:44;4.55;;;2.80;;
74963;SDS011;63521;51.900;4.748;2023-04-15T03:47:13;4.63;;;2.45;;
74963;SDS011;63521;51.900;4.748;2023-04-15T03:49:38;6.95;;;3.00;;
74963;SDS011;63521;51.900;4.748;2023-04-15T03:52:05;2.97;;;2.35;;
74963;SDS011;63521;51.900;4.748;2023-04-15T03:54:32;4.85;;;2.53;;
74963;SDS011;63521;51.900;4.748;2023-04-15T03:56:59;5.47;;;2.65;;
74963;SDS011;63521;51.900;4.748;2023-04-15T03:59:25;3.88;;;2.38;;
74963;SDS011;63521;51.900;4.748;2023-04-15T04:01:51;3.88;;;2.25;;
74963;SDS011;63521;51.900;4.748;2023-04-15T04:04:16;4.38;;;2.60;;
74963;SDS011;63521;51.900;4.748;2023-04-15T04:06:42;3.95;;;2.35;;
74963;SDS011;63521;51.900;4.748;2023-04-15T04:09:07;3.55;;;2.45;;
74963;SDS011;63521;51.900;4.748;2023-04-15T04:11:33;5.95;;;2.67;;
74963;SDS011;63521;51.900;4.748;2023-04-15T04:13:58;4.32;;;2.22;;
74963;SDS011;63521;51.900;4.748;2023-04-15T04:16:23;5.70;;;2.60;;
74963;SDS011;63521;51.900;4.748;2023-04-15T04:18:49;3.83;;;2.20;;
74963;SDS011;63521;51.900;4.748;2023-04-15T04:21:15;4.05;;;2.70;;
74963;SDS011;63521;51.900;4.748;2023-04-15T04:23:40;5.05;;;2.53;;
74963;SDS011;63521;51.900;4.748;2023-04-15T04:26:06;3.80;;;2.45;;
74963;SDS011;63521;51.900;4.748;2023-04-15T04:28:32;3.95;;;2.30;;
74963;SDS011;63521;51.900;4.748;2023-04-15T04:30:57;4.28;;;2.33;;
74963;SDS011;63521;51.900;4.748;2023-04-15T04:33:23;3.83;;;2.30;;
74963;SDS011;63521;51.900;4.748;2023-04-15T04:35:48;5.20;;;2.50;;
74963;SDS011;63521;51.900;4.748;2023-04-15T04:38:14;4.30;;;2.30;;
74963;SDS011;63521;51.900;4.748;2023-04-15T04:40:39;5.40;;;2.42;;
74963;SDS011;63521;51.900;4.748;2023-04-15T04:43:05;3.85;;;2.53;;
74963;SDS011;63521;51.900;4.748;2023-04-15T04:45:30;3.80;;;2.78;;
74963;SDS011;63521;51.900;4.748;2023-04-15T04:47:56;4.03;;;2.33;;
74963;SDS011;63521;51.900;4.748;2023-04-15T04:50:21;4.07;;;2.78;;
74963;SDS011;63521;51.900;4.748;2023-04-15T04:52:46;3.50;;;2.40;;
74963;SDS011;63521;51.900;4.748;2023-04-15T04:55:12;5.22;;;2.20;;
74963;SDS011;63521;51.900;4.748;2023-04-15T04:57:37;4.75;;;2.65;;
74963;SDS011;63521;51.900;4.748;2023-04-15T05:00:06;4.85;;;2.65;;
74963;SDS011;63521;51.900;4.748;2023-04-15T05:02:33;4.70;;;2.70;;
74963;SDS011;63521;51.900;4.748;2023-04-15T05:04:58;4.60;;;2.53;;
74963;SDS011;63521;51.900;4.748;2023-04-15T05:07:24;3.97;;;2.42;;
74963;SDS011;63521;51.900;4.748;2023-04-15T05:09:49;3.33;;;2.33;;
74963;SDS011;63521;51.900;4.748;2023-04-15T05:12:15;4.57;;;2.33;;
74963;SDS011;63521;51.900;4.748;2023-04-15T05:14:40;4.82;;;2.40;;
74963;SDS011;63521;51.900;4.748;2023-04-15T05:17:06;5.43;;;2.40;;
74963;SDS011;63521;51.900;4.748;2023-04-15T05:19:32;4.30;;;2.67;;
74963;SDS011;63521;51.900;4.748;2023-04-15T05:21:58;4.53;;;2.50;;
74963;SDS011;63521;51.900;4.748;2023-04-15T05:24:36;3.90;;;2.53;;
74963;SDS011;63521;51.900;4.748;2023-04-15T05:27:09;3.75;;;2.30;;
74963;SDS011;63521;51.900;4.748;2023-04-15T05:30:05;4.65;;;2.60;;
74963;SDS011;63521;51.900;4.748;2023-04-15T05:32:47;4.32;;;2.28;;
74963;SDS011;63521;51.900;4.748;2023-04-15T05:35:21;4.00;;;2.15;;
74963;SDS011;63521;51.900;4.748;2023-04-15T05:37:47;3.15;;;2.10;;
74963;SDS011;63521;51.900;4.748;2023-04-15T05:40:12;3.67;;;2.20;;
74963;SDS011;63521;51.900;4.748;2023-04-15T05:42:38;5.93;;;2.28;;
74963;SDS011;63521;51.900;4.748;2023-04-15T05:45:03;3.78;;;2.28;;
74963;SDS011;63521;51.900;4.748;2023-04-15T05:47:33;4.05;;;2.30;;
74963;SDS011;63521;51.900;4.748;2023-04-15T05:50:04;3.78;;;2.08;;
74963;SDS011;63521;51.900;4.748;2023-04-15T05:52:30;4.22;;;2.40;;
74963;SDS011;63521;51.900;4.748;2023-04-15T05:54:56;2.97;;;2.05;;
74963;SDS011;63521;51.900;4.748;2023-04-15T05:57:21;4.25;;;2.00;;
74963;SDS011;63521;51.900;4.748;2023-04-15T05:59:47;4.00;;;2.20;;
74963;SDS011;63521;51.900;4.748;2023-04-15T06:02:13;3.83;;;2.00;;
74963;SDS011;63521;51.900;4.748;2023-04-15T06:04:41;3.63;;;1.90;;
74963;SDS011;63521;51.900;4.748;2023-04-15T06:07:07;3.55;;;2.08;;
74963;SDS011;63521;51.900;4.748;2023-04-15T06:09:32;2.63;;;1.83;;
74963;SDS011;63521;51.900;4.748;2023-04-15T06:11:58;3.47;;;1.80;;
74963;SDS011;63521;51.900;4.748;2023-04-15T06:14:23;3.05;;;2.10;;
74963;SDS011;63521;51.900;4.748;2023-04-15T06:16:49;3.20;;;2.20;;
74963;SDS011;63521;51.900;4.748;2023-04-15T06:19:14;3.50;;;2.00;;
74963;SDS011;63521;51.900;4.748;2023-04-15T06:21:40;3.63;;;2.10;;
74963;SDS011;63521;51.900;4.748;2023-04-15T06:24:06;2.92;;;1.98;;
74963;SDS011;63521;51.900;4.748;2023-04-15T06:26:31;4.47;;;2.13;;
74963;SDS011;63521;51.900;4.748;2023-04-15T06:28:57;2.88;;;1.98;;
74963;SDS011;63521;51.900;4.748;2023-04-15T06:31:22;2.80;;;1.90;;
74963;SDS011;63521;51.900;4.748;2023-04-15T06:33:48;3.88;;;2.25;;
74963;SDS011;63521;51.900;4.748;2023-04-15T06:36:13;3.25;;;2.13;;
74963;SDS011;63521;51.900;4.748;2023-04-15T06:38:39;4.15;;;2.15;;
74963;SDS011;63521;51.900;4.748;2023-04-15T06:41:04;2.95;;;1.95;;
74963;SDS011;63521;51.900;4.748;2023-04-15T06:43:30;3.15;;;2.00;;
74963;SDS011;63521;51.900;4.748;2023-04-15T06:45:56;3.53;;;2.10;;
74963;SDS011;63521;51.900;4.748;2023-04-15T06:48:22;3.92;;;2.22;;
74963;SDS011;63521;51.900;4.748;2023-04-15T06:50:48;4.88;;;2.25;;
74963;SDS011;63521;51.900;4.748;2023-04-15T06:53:16;3.30;;;2.00;;
74963;SDS011;63521;51.900;4.748;2023-04-15T06:55:41;2.92;;;1.85;;
74963;SDS011;63521;51.900;4.748;2023-04-15T06:58:07;3.97;;;2.25;;
74963;SDS011;63521;51.900;4.748;2023-04-15T07:00:32;3.17;;;2.15;;
74963;SDS011;63521;51.900;4.748;2023-04-15T07:02:58;3.83;;;1.95;;
74963;SDS011;63521;51.900;4.748;2023-04-15T07:05:28;3.10;;;2.08;;
74963;SDS011;63521;51.900;4.748;2023-04-15T07:07:54;4.47;;;2.28;;
74963;SDS011;63521;51.900;4.748;2023-04-15T07:10:20;4.68;;;2.50;;
74963;SDS011;63521;51.900;4.748;2023-04-15T07:12:46;3.22;;;2.10;;
74963;SDS011;63521;51.900;4.748;2023-04-15T07:15:12;3.80;;;2.15;;
74963;SDS011;63521;51.900;4.748;2023-04-15T07:17:37;16.23;;;2.60;;
74963;SDS011;63521;51.900;4.748;2023-04-15T07:20:03;3.47;;;2.10;;
74963;SDS011;63521;51.900;4.748;2023-04-15T07:22:29;2.95;;;2.28;;
74963;SDS011;63521;51.900;4.748;2023-04-15T07:24:54;3.35;;;2.13;;
74963;SDS011;63521;51.900;4.748;2023-04-15T07:27:22;3.42;;;2.30;;
74963;SDS011;63521;51.900;4.748;2023-04-15T07:29:48;2.90;;;1.95;;
74963;SDS011;63521;51.900;4.748;2023-04-15T07:32:15;3.20;;;1.88;;
74963;SDS011;63521;51.900;4.748;2023-04-15T07:34:43;3.17;;;1.90;;
74963;SDS011;63521;51.900;4.748;2023-04-15T07:37:09;4.10;;;2.42;;
74963;SDS011;63521;51.900;4.748;2023-04-15T07:39:35;3.08;;;1.90;;
74963;SDS011;63521;51.900;4.748;2023-04-15T07:42:01;3.35;;;2.17;;
74963;SDS011;63521;51.900;4.748;2023-04-15T07:44:29;3.25;;;2.10;;
74963;SDS011;63521;51.900;4.748;2023-04-15T07:47:02;3.70;;;2.20;;
74963;SDS011;63521;51.900;4.748;2023-04-15T07:49:28;4.38;;;2.22;;
74963;SDS011;63521;51.900;4.748;2023-04-15T07:52:11;4.03;;;2.17;;
74963;SDS011;63521;51.900;4.748;2023-04-15T07:54:45;3.92;;;2.30;;
74963;SDS011;63521;51.900;4.748;2023-04-15T07:57:16;3.60;;;2.55;;
74963;SDS011;63521;51.900;4.748;2023-04-15T08:00:09;3.72;;;2.20;;
74963;SDS011;63521;51.900;4.748;2023-04-15T08:02:40;4.15;;;2.15;;
74963;SDS011;63521;51.900;4.748;2023-04-15T08:05:09;3.63;;;2.30;;
74963;SDS011;63521;51.900;4.748;2023-04-15T08:07:38;3.88;;;2.50;;
74963;SDS011;63521;51.900;4.748;2023-04-15T08:10:07;4.10;;;2.00;;
74963;SDS011;63521;51.900;4.748;2023-04-15T08:12:40;3.50;;;2.50;;
74963;SDS011;63521;51.900;4.748;2023-04-15T08:15:06;3.95;;;2.22;;
74963;SDS011;63521;51.900;4.748;2023-04-15T08:17:33;3.10;;;2.08;;
74963;SDS011;63521;51.900;4.748;2023-04-15T08:19:59;4.30;;;3.15;;
74963;SDS011;63521;51.900;4.748;2023-04-15T08:22:24;5.18;;;2.47;;
74963;SDS011;63521;51.900;4.748;2023-04-15T08:24:50;3.80;;;2.50;;
74963;SDS011;63521;51.900;4.748;2023-04-15T08:27:16;4.38;;;2.60;;
74963;SDS011;63521;51.900;4.748;2023-04-15T08:29:42;4.28;;;2.45;;
74963;SDS011;63521;51.900;4.748;2023-04-15T08:32:10;3.75;;;2.40;;
74963;SDS011;63521;51.900;4.748;2023-04-15T08:34:36;2.80;;;2.10;;
74963;SDS011;63521;51.900;4.748;2023-04-15T08:37:01;3.45;;;2.30;;
74963;SDS011;63521;51.900;4.748;2023-04-15T08:39:27;3.50;;;2.25;;
74963;SDS011;63521;51.900;4.748;2023-04-15T08:42:06;2.90;;;2.10;;
74963;SDS011;63521;51.900;4.748;2023-04-15T08:44:36;2.88;;;2.05;;
74963;SDS011;63521;51.900;4.748;2023-04-15T08:47:03;3.88;;;2.17;;
74963;SDS011;63521;51.900;4.748;2023-04-15T08:49:35;4.15;;;2.45;;
74963;SDS011;63521;51.900;4.748;2023-04-15T08:52:03;2.60;;;1.73;;
74963;SDS011;63521;51.900;4.748;2023-04-15T08:54:33;3.00;;;2.00;;
74963;SDS011;63521;51.900;4.748;2023-04-15T08:56:59;2.28;;;1.52;;
74963;SDS011;63521;51.900;4.748;2023-04-15T08:59:26;2.58;;;1.77;;
74963;SDS011;63521;51.900;4.748;2023-04-15T09:01:51;3.35;;;2.20;;
74963;SDS011;63521;51.900;4.748;2023-04-15T09:04:17;2.72;;;1.60;;
74963;SDS011;63521;51.900;4.748;2023-04-15T09:06:43;2.83;;;1.50;;
74963;SDS011;63521;51.900;4.748;2023-04-15T09:09:08;1.90;;;1.52;;
74963;SDS011;63521;51.900;4.748;2023-04-15T09:11:34;1.63;;;1.52;;
74963;SDS011;63521;51.900;4.748;2023-04-15T09:14:00;2.67;;;1.63;;
74963;SDS011;63521;51.900;4.748;2023-04-15T09:16:26;2.05;;;1.58;;
74963;SDS011;63521;51.900;4.748;2023-04-15T09:18:52;1.98;;;1.73;;
74963;SDS011;63521;51.900;4.748;2023-04-15T09:21:18;2.20;;;1.70;;
74963;SDS011;63521;51.900;4.748;2023-04-15T09:23:56;3.60;;;1.60;;
74963;SDS011;63521;51.900;4.748;2023-04-15T09:26:32;3.30;;;1.60;;
74963;SDS011;63521;51.900;4.748;2023-04-15T09:29:08;1.88;;;1.55;;
74963;SDS011;63521;51.900;4.748;2023-04-15T09:31:37;3.58;;;1.70;;
74963;SDS011;63521;51.900;4.748;2023-04-15T09:34:06;2.78;;;1.40;;
74963;SDS011;63521;51.900;4.748;2023-04-15T09:36:52;1.40;;;1.30;;
74963;SDS011;63521;51.900;4.748;2023-04-15T09:39:18;1.60;;;1.20;;
74963;SDS011;63521;51.900;4.748;2023-04-15T09:41:44;1.88;;;1.30;;
74963;SDS011;63521;51.900;4.748;2023-04-15T09:44:22;2.72;;;1.40;;
74963;SDS011;63521;51.900;4.748;2023-04-15T09:46:48;1.52;;;1.35;;
74963;SDS011;63521;51.900;4.748;2023-04-15T09:49:14;1.50;;;1.25;;
74963;SDS011;63521;51.900;4.748;2023-04-15T09:51:41;1.83;;;1.23;;
74963;SDS011;63521;51.900;4.748;2023-04-15T09:54:10;2.08;;;1.35;;
74963;SDS011;63521;51.900;4.748;2023-04-15T09:56:47;1.77;;;1.40;;
74963;SDS011;63521;51.900;4.748;2023-04-15T09:59:13;2.45;;;1.30;;
74963;SDS011;63521;51.900;4.748;2023-04-15T10:01:39;1.30;;;1.10;;
74963;SDS011;63521;51.900;4.748;2023-04-15T10:04:05;1.42;;;1.15;;
74963;SDS011;63521;51.900;4.748;2023-04-15T10:06:31;1.65;;;1.40;;
74963;SDS011;63521;51.900;4.748;2023-04-15T10:08:57;1.98;;;1.38;;
74963;SDS011;63521;51.900;4.748;2023-04-15T10:11:23;1.45;;;1.10;;
74963;SDS011;63521;51.900;4.748;2023-04-15T10:13:49;1.52;;;1.10;;
74963;SDS011;63521;51.900;4.748;2023-04-15T10:16:16;2.00;;;1.20;;
74963;SDS011;63521;51.900;4.748;2023-04-15T10:18:45;1.77;;;1.08;;
74963;SDS011;63521;51.900;4.748;2023-04-15T10:21:12;1.30;;;1.17;;
74963;SDS011;63521;51.900;4.748;2023-04-15T10:23:40;1.17;;;1.00;;
74963;SDS011;63521;51.900;4.748;2023-04-15T10:26:08;1.35;;;1.20;;
74963;SDS011;63521;51.900;4.748;2023-04-15T10:28:36;1.85;;;1.10;;
74963;SDS011;63521;51.900;4.748;2023-04-15T10:31:02;2.75;;;1.27;;
74963;SDS011;63521;51.900;4.748;2023-04-15T10:33:29;1.20;;;0.98;;
74963;SDS011;63521;51.900;4.748;2023-04-15T10:35:55;2.47;;;1.00;;
74963;SDS011;63521;51.900;4.748;2023-04-15T10:38:30;1.88;;;1.30;;
74963;SDS011;63521;51.900;4.748;2023-04-15T10:46:35;2.15;;;1.23;;
74963;SDS011;63521;51.900;4.748;2023-04-15T10:49:07;3.13;;;1.60;;
74963;SDS011;63521;51.900;4.748;2023-04-15T10:51:33;1.80;;;1.58;;
74963;SDS011;63521;51.900;4.748;2023-04-15T10:54:06;2.17;;;1.20;;
74963;SDS011;63521;51.900;4.748;2023-04-15T10:56:34;1.10;;;1.00;;
74963;SDS011;63521;51.900;4.748;2023-04-15T10:59:01;2.30;;;1.10;;
74963;SDS011;63521;51.900;4.748;2023-04-15T11:09:58;1.95;;;1.40;;
74963;SDS011;63521;51.900;4.748;2023-04-15T11:12:32;1.20;;;1.10;;
74963;SDS011;63521;51.900;4.748;2023-04-15T11:25:46;1.17;;;1.08;;
74963;SDS011;63521;51.900;4.748;2023-04-15T11:28:13;1.30;;;1.10;;
74963;SDS011;63521;51.900;4.748;2023-04-15T11:30:41;1.70;;;1.02;;
74963;SDS011;63521;51.900;4.748;2023-04-15T11:33:35;3.15;;;1.05;;
74963;SDS011;63521;51.900;4.748;2023-04-15T11:43:20;2.50;;;1.38;;
74963;SDS011;63521;51.900;4.748;2023-04-15T11:49:46;1.40;;;1.23;;
74963;SDS011;63521;51.900;4.748;2023-04-15T11:52:35;1.30;;;1.20;;
74963;SDS011;63521;51.900;4.748;2023-04-15T11:56:29;2.40;;;1.40;;
74963;SDS011;63521;51.900;4.748;2023-04-15T12:02:42;2.00;;;1.40;;
74963;SDS011;63521;51.900;4.748;2023-04-15T12:05:43;2.20;;;1.38;;
74963;SDS011;63521;51.900;4.748;2023-04-15T12:11:56;2.50;;;1.30;;
74963;SDS011;63521;51.900;4.748;2023-04-15T12:14:31;2.60;;;1.63;;
74963;SDS011;63521;51.900;4.748;2023-04-15T12:19:58;2.08;;;1.52;;
74963;SDS011;63521;51.900;4.748;2023-04-15T12:34:08;1.30;;;1.17;;
74963;SDS011;63521;51.900;4.748;2023-04-15T12:41:05;1.50;;;1.17;;
74963;SDS011;63521;51.900;4.748;2023-04-15T12:50:17;5.95;;;1.70;;
74963;SDS011;63521;51.900;4.748;2023-04-15T12:52:43;4.70;;;1.77;;
74963;SDS011;63521;51.900;4.748;2023-04-15T12:55:08;5.20;;;1.77;;
74963;SDS011;63521;51.900;4.748;2023-04-15T12:57:33;4.10;;;1.52;;
74963;SDS011;63521;51.900;4.748;2023-04-15T12:59:59;5.88;;;2.03;;
74963;SDS011;63521;51.900;4.748;2023-04-15T13:02:24;3.33;;;1.80;;
74963;SDS011;63521;51.900;4.748;2023-04-15T13:04:52;3.28;;;1.73;;
74963;SDS011;63521;51.900;4.748;2023-04-15T13:07:17;2.72;;;1.50;;
74963;SDS011;63521;51.900;4.748;2023-04-15T13:09:43;2.70;;;1.40;;
74963;SDS011;63521;51.900;4.748;2023-04-15T13:12:08;1.75;;;1.40;;
74963;SDS011;63521;51.900;4.748;2023-04-15T13:14:34;3.17;;;1.40;;
74963;SDS011;63521;51.900;4.748;2023-04-15T13:16:59;1.40;;;1.30;;
74963;SDS011;63521;51.900;4.748;2023-04-15T13:19:25;3.80;;;1.63;;
74963;SDS011;63521;51.900;4.748;2023-04-15T13:21:50;2.00;;;1.30;;
74963;SDS011;63521;51.900;4.748;2023-04-15T13:24:16;2.65;;;1.48;;
74963;SDS011;63521;51.900;4.748;2023-04-15T13:26:41;1.55;;;1.40;;
74963;SDS011;63521;51.900;4.748;2023-04-15T13:29:07;2.95;;;1.10;;
74963;SDS011;63521;51.900;4.748;2023-04-15T13:31:32;2.20;;;1.20;;
74963;SDS011;63521;51.900;4.748;2023-04-15T13:33:57;1.42;;;1.33;;
74963;SDS011;63521;51.900;4.748;2023-04-15T13:36:23;1.55;;;1.08;;
74963;SDS011;63521;51.900;4.748;2023-04-15T13:38:48;1.35;;;1.10;;
74963;SDS011;63521;51.900;4.748;2023-04-15T13:41:14;1.38;;;0.90;;
74963;SDS011;63521;51.900;4.748;2023-04-15T13:43:40;1.92;;;1.05;;
74963;SDS011;63521;51.900;4.748;2023-04-15T13:46:20;1.73;;;1.00;;
74963;SDS011;63521;51.900;4.748;2023-04-15T13:48:50;1.85;;;1.05;;
74963;SDS011;63521;51.900;4.748;2023-04-15T13:51:15;1.80;;;1.23;;
74963;SDS011;63521;51.900;4.748;2023-04-15T13:53:41;1.20;;;1.10;;
74963;SDS011;63521;51.900;4.748;2023-04-15T13:56:07;2.97;;;1.60;;
74963;SDS011;63521;51.900;4.748;2023-04-15T13:58:32;1.75;;;0.98;;
74963;SDS011;63521;51.900;4.748;2023-04-15T14:00:57;1.60;;;1.10;;
74963;SDS011;63521;51.900;4.748;2023-04-15T14:03:23;1.75;;;1.10;;
74963;SDS011;63521;51.900;4.748;2023-04-15T14:05:48;1.33;;;1.20;;
74963;SDS011;63521;51.900;4.748;2023-04-15T14:08:19;1.35;;;1.15;;
74963;SDS011;63521;51.900;4.748;2023-04-15T14:10:45;1.17;;;1.10;;
74963;SDS011;63521;51.900;4.748;2023-04-15T14:13:12;1.10;;;1.10;;
74963;SDS011;63521;51.900;4.748;2023-04-15T14:15:39;2.40;;;1.23;;
74963;SDS011;63521;51.900;4.748;2023-04-15T14:18:06;1.65;;;1.10;;
74963;SDS011;63521;51.900;4.748;2023-04-15T14:20:32;1.02;;;0.93;;
74963;SDS011;63521;51.900;4.748;2023-04-15T14:22:57;2.22;;;1.20;;
74963;SDS011;63521;51.900;4.748;2023-04-15T14:29:26;3.58;;;1.40;;
74963;SDS011;63521;51.900;4.748;2023-04-15T14:32:06;1.92;;;1.70;;
74963;SDS011;63521;51.900;4.748;2023-04-15T15:11:41;2.22;;;1.10;;
74963;SDS011;63521;51.900;4.748;2023-04-15T15:17:31;2.20;;;1.08;;
74963;SDS011;63521;51.900;4.748;2023-04-15T15:19:57;1.10;;;1.00;;
74963;SDS011;63521;51.900;4.748;2023-04-15T15:22:22;0.82;;;0.80;;
74963;SDS011;63521;51.900;4.748;2023-04-15T15:24:48;0.70;;;0.70;;
74963;SDS011;63521;51.900;4.748;2023-04-15T15:27:14;0.80;;;0.80;;
74963;SDS011;63521;51.900;4.748;2023-04-15T15:29:39;1.10;;;1.00;;
74963;SDS011;63521;51.900;4.748;2023-04-15T15:32:04;1.33;;;1.00;;
74963;SDS011;63521;51.900;4.748;2023-04-15T15:34:30;1.10;;;1.00;;
74963;SDS011;63521;51.900;4.748;2023-04-15T15:36:55;2.17;;;1.10;;
74963;SDS011;63521;51.900;4.748;2023-04-15T16:01:34;1.92;;;1.00;;
74963;SDS011;63521;51.900;4.748;2023-04-15T16:05:20;2.08;;;1.00;;
74963;SDS011;63521;51.900;4.748;2023-04-15T18:03:26;1.58;;;1.00;;
74963;SDS011;63521;51.900;4.748;2023-04-15T18:10:54;2.80;;;1.05;;
74963;SDS011;63521;51.900;4.748;2023-04-15T18:17:57;1.05;;;0.88;;
74963;SDS011;63521;51.900;4.748;2023-04-15T18:25:40;2.03;;;1.20;;
74963;SDS011;63521;51.900;4.748;2023-04-15T18:33:12;1.33;;;1.00;;
74963;SDS011;63521;51.900;4.748;2023-04-15T18:40:06;2.47;;;1.00;;
74963;SDS011;63521;51.900;4.748;2023-04-15T18:42:32;2.45;;;1.35;;
74963;SDS011;63521;51.900;4.748;2023-04-15T18:44:57;2.83;;;1.10;;
74963;SDS011;63521;51.900;4.748;2023-04-15T18:47:23;1.90;;;0.88;;
74963;SDS011;63521;51.900;4.748;2023-04-15T18:49:50;1.08;;;0.95;;
74963;SDS011;63521;51.900;4.748;2023-04-15T18:52:16;1.15;;;1.00;;
74963;SDS011;63521;51.900;4.748;2023-04-15T18:54:41;1.40;;;0.93;;
74963;SDS011;63521;51.900;4.748;2023-04-15T18:57:07;2.53;;;1.10;;
74963;SDS011;63521;51.900;4.748;2023-04-15T18:59:32;2.22;;;1.10;;
74963;SDS011;63521;51.900;4.748;2023-04-15T19:01:58;1.50;;;1.00;;
74963;SDS011;63521;51.900;4.748;2023-04-15T19:04:24;1.75;;;0.95;;
74963;SDS011;63521;51.900;4.748;2023-04-15T19:06:50;3.38;;;1.30;;
74963;SDS011;63521;51.900;4.748;2023-04-15T19:09:15;1.17;;;1.08;;
74963;SDS011;63521;51.900;4.748;2023-04-15T19:11:41;2.80;;;1.33;;
74963;SDS011;63521;51.900;4.748;2023-04-15T19:14:07;2.67;;;0.98;;
74963;SDS011;63521;51.900;4.748;2023-04-15T19:16:33;2.55;;;1.20;;
74963;SDS011;63521;51.900;4.748;2023-04-15T19:18:59;1.55;;;1.13;;
74963;SDS011;63521;51.900;4.748;2023-04-15T19:21:25;2.63;;;0.98;;
74963;SDS011;63521;51.900;4.748;2023-04-15T19:23:50;2.88;;;1.10;;
74963;SDS011;63521;51.900;4.748;2023-04-15T19:26:16;2.50;;;0.98;;